createdAt,value
2017-09-29T00:01:01.051Z,14.70
2017-09-29T00:03:28.045Z,14.70
2017-09-29T00:05:54.282Z,14.70
2017-09-29T00:08:20.540Z,14.70
2017-09-29T00:10:46.770Z,14.80
2017-09-29T00:13:12.993Z,14.80
2017-09-29T00:15:39.270Z,14.80
2017-09-29T00:18:05.507Z,14.70
2017-09-29T00:20:31.806Z,14.70
2017-09-29T00:22:58.820Z,14.80
2017-09-29T00:25:25.064Z,14.80
2017-09-29T00:27:52.030Z,14.80
2017-09-29T00:30:18.310Z,14.80
2017-09-29T00:32:44.549Z,14.80
2017-09-29T00:35:10.813Z,14.80
2017-09-29T00:37:37.815Z,14.70
2017-09-29T00:40:04.062Z,14.70
2017-09-29T00:42:30.318Z,14.70
2017-09-29T00:44:56.632Z,14.70
2017-09-29T00:47:23.632Z,14.70
2017-09-29T00:49:49.954Z,14.70
2017-09-29T00:52:16.232Z,14.70
2017-09-29T00:54:43.286Z,14.80
2017-09-29T00:57:10.282Z,14.80
2017-09-29T00:59:36.579Z,14.80
2017-09-29T01:02:03.757Z,14.80
2017-09-29T01:04:30.027Z,14.80
2017-09-29T01:06:56.637Z,14.80
2017-09-29T01:09:22.865Z,14.80
2017-09-29T01:11:49.921Z,14.90
2017-09-29T01:14:16.275Z,14.80
2017-09-29T01:16:43.280Z,14.90
2017-09-29T01:19:09.521Z,14.80
2017-09-29T01:21:35.964Z,14.80
2017-09-29T01:24:02.215Z,14.80
2017-09-29T01:26:29.222Z,14.80
2017-09-29T01:28:55.758Z,14.80
2017-09-29T01:31:22.012Z,14.70
2017-09-29T01:33:48.257Z,14.70
2017-09-29T01:36:15.262Z,14.80
2017-09-29T01:38:41.513Z,14.80
2017-09-29T01:41:07.781Z,14.80
2017-09-29T01:43:34.029Z,14.90
2017-09-29T01:46:00.321Z,14.90
2017-09-29T01:48:27.374Z,14.80
2017-09-29T01:50:54.346Z,14.90
2017-09-29T01:53:20.605Z,14.90
2017-09-29T01:55:46.881Z,14.90
2017-09-29T01:58:13.888Z,14.90
2017-09-29T02:00:40.149Z,14.90
2017-09-29T02:03:07.457Z,15.00
2017-09-29T02:05:33.700Z,15.00
2017-09-29T02:07:59.941Z,15.00
2017-09-29T02:10:26.228Z,14.90
2017-09-29T02:12:52.473Z,14.90
2017-09-29T02:15:18.729Z,14.80
2017-09-29T02:17:45.031Z,14.90
2017-09-29T02:20:11.302Z,14.90
2017-09-29T02:22:38.309Z,14.90
2017-09-29T02:25:04.618Z,14.90
2017-09-29T02:27:30.862Z,15.00
2017-09-29T02:29:57.096Z,15.00
2017-09-29T02:32:23.393Z,14.90
2017-09-29T02:34:49.689Z,14.90
2017-09-29T02:37:16.704Z,14.90
2017-09-29T02:39:43.009Z,14.90
2017-09-29T02:42:09.269Z,14.90
2017-09-29T02:44:35.518Z,15.00
2017-09-29T02:47:02.591Z,15.00
2017-09-29T02:49:28.845Z,14.90
2017-09-29T02:51:55.087Z,15.00
2017-09-29T02:54:21.625Z,14.90
2017-09-29T02:56:54.664Z,14.90
2017-09-29T02:59:22.881Z,14.90
2017-09-29T03:01:51.769Z,14.90
2017-09-29T03:04:19.167Z,14.90
2017-09-29T03:06:46.189Z,14.80
2017-09-29T03:09:12.417Z,14.70
2017-09-29T03:11:38.654Z,14.80
2017-09-29T03:14:04.890Z,14.80
2017-09-29T03:16:31.129Z,14.70
2017-09-29T03:18:58.101Z,14.70
2017-09-29T03:21:24.397Z,14.70
2017-09-29T03:23:51.364Z,14.70
2017-09-29T03:26:18.326Z,14.60
2017-09-29T03:28:44.590Z,14.60
2017-09-29T03:31:10.838Z,14.60
2017-09-29T03:33:37.082Z,14.60
2017-09-29T03:36:03.371Z,14.60
2017-09-29T03:38:29.614Z,14.60
2017-09-29T03:40:55.848Z,14.70
2017-09-29T03:43:22.360Z,14.70
2017-09-29T03:45:48.613Z,14.70
2017-09-29T03:48:14.862Z,14.60
2017-09-29T03:50:48.861Z,14.60
2017-09-29T03:53:16.899Z,14.60
2017-09-29T03:55:45.053Z,14.60
2017-09-29T03:58:15.397Z,14.60
2017-09-29T04:00:41.645Z,14.60
2017-09-29T04:03:08.160Z,14.60
2017-09-29T04:05:34.397Z,14.60
2017-09-29T04:08:00.637Z,14.60
2017-09-29T04:10:26.865Z,14.60
2017-09-29T04:12:53.093Z,14.60
2017-09-29T04:15:19.354Z,14.60
2017-09-29T04:17:45.629Z,14.50
2017-09-29T04:20:11.873Z,14.50
2017-09-29T04:22:38.087Z,14.60
2017-09-29T04:25:04.379Z,14.50
2017-09-29T04:27:30.641Z,14.50
2017-09-29T04:29:56.873Z,14.50
2017-09-29T04:32:23.149Z,14.50
2017-09-29T04:34:50.116Z,14.60
2017-09-29T04:37:16.325Z,14.60
2017-09-29T04:39:43.329Z,14.50
2017-09-29T04:42:09.578Z,14.50
2017-09-29T04:44:36.542Z,14.60
2017-09-29T04:47:03.845Z,14.60
2017-09-29T04:49:30.073Z,14.60
2017-09-29T04:51:56.303Z,14.60
2017-09-29T04:54:22.732Z,14.50
2017-09-29T04:56:48.962Z,14.50
2017-09-29T04:59:15.177Z,14.50
2017-09-29T05:01:41.408Z,14.50
2017-09-29T05:04:07.650Z,14.50
2017-09-29T05:06:34.178Z,14.60
2017-09-29T05:09:00.405Z,14.50
2017-09-29T05:11:26.629Z,14.50
2017-09-29T05:13:52.889Z,14.50
2017-09-29T05:16:19.097Z,14.50
2017-09-29T05:18:45.327Z,14.50
2017-09-29T05:21:11.613Z,14.50
2017-09-29T05:23:37.858Z,14.50
2017-09-29T05:26:04.095Z,14.50
2017-09-29T05:28:30.745Z,14.50
2017-09-29T05:30:57.074Z,14.50
2017-09-29T05:33:23.330Z,14.50
2017-09-29T05:35:49.589Z,14.50
2017-09-29T05:38:15.809Z,14.50
2017-09-29T05:40:42.947Z,14.50
2017-09-29T05:43:09.382Z,14.50
2017-09-29T05:45:37.305Z,14.50
2017-09-29T05:48:04.956Z,14.50
2017-09-29T05:50:31.490Z,14.50
2017-09-29T05:52:57.888Z,14.60
2017-09-29T05:55:24.432Z,14.60
2017-09-29T05:57:51.584Z,14.60
2017-09-29T06:00:18.428Z,14.50
2017-09-29T06:02:44.899Z,14.50
2017-09-29T06:05:11.446Z,14.50
2017-09-29T06:07:38.689Z,14.60
2017-09-29T06:10:06.133Z,14.50
2017-09-29T06:12:33.515Z,14.50
2017-09-29T06:15:00.249Z,14.50
2017-09-29T06:17:26.875Z,14.50
2017-09-29T06:19:53.501Z,14.50
2017-09-29T06:22:20.199Z,14.50
2017-09-29T06:24:47.663Z,14.50
2017-09-29T06:27:14.596Z,14.50
2017-09-29T06:29:41.860Z,14.60
2017-09-29T06:32:08.395Z,14.60
2017-09-29T06:34:35.972Z,14.50
2017-09-29T06:37:02.676Z,14.60
2017-09-29T06:39:29.046Z,14.60
2017-09-29T06:41:56.864Z,14.60
2017-09-29T06:44:24.105Z,14.60
2017-09-29T06:46:50.599Z,14.60
2017-09-29T06:49:17.397Z,14.60
2017-09-29T06:51:44.906Z,14.70
2017-09-29T06:54:11.479Z,14.70
2017-09-29T06:56:38.731Z,14.80
2017-09-29T06:59:06.228Z,14.80
2017-09-29T07:01:33.169Z,14.80
2017-09-29T07:03:59.820Z,14.90
2017-09-29T07:06:26.239Z,14.90
2017-09-29T07:08:52.737Z,15.00
2017-09-29T07:11:19.382Z,14.90
2017-09-29T07:13:46.871Z,14.80
2017-09-29T07:16:13.458Z,14.80
2017-09-29T07:18:40.209Z,14.70
2017-09-29T07:21:06.700Z,14.80
2017-09-29T07:23:33.138Z,15.00
2017-09-29T07:26:01.806Z,15.00
2017-09-29T07:28:29.893Z,15.00
2017-09-29T07:30:57.517Z,15.20
2017-09-29T07:33:24.703Z,15.30
2017-09-29T07:35:51.021Z,15.30
2017-09-29T07:38:17.609Z,15.40
2017-09-29T07:40:43.977Z,15.40
2017-09-29T07:43:10.462Z,15.50
2017-09-29T07:45:37.447Z,15.50
2017-09-29T07:48:04.549Z,15.40
2017-09-29T07:50:31.935Z,15.40
2017-09-29T07:52:59.359Z,15.50
2017-09-29T07:55:25.972Z,15.50
2017-09-29T07:57:52.653Z,15.60
2017-09-29T08:00:19.048Z,15.70
2017-09-29T08:02:45.473Z,15.70
2017-09-29T08:05:11.957Z,15.70
2017-09-29T08:07:39.546Z,15.80
2017-09-29T08:10:06.162Z,15.80
2017-09-29T08:12:33.452Z,16.00
2017-09-29T08:15:00.289Z,16.00
2017-09-29T08:17:26.956Z,16.00
2017-09-29T08:19:53.334Z,16.00
2017-09-29T08:22:20.957Z,16.20
2017-09-29T08:24:47.464Z,16.20
2017-09-29T08:27:13.927Z,16.20
2017-09-29T08:29:40.474Z,16.20
2017-09-29T08:32:07.601Z,16.10
2017-09-29T08:34:33.944Z,16.20
2017-09-29T08:37:00.251Z,16.20
2017-09-29T08:39:26.900Z,16.30
2017-09-29T08:41:53.281Z,16.30
2017-09-29T08:44:19.882Z,16.30
2017-09-29T08:46:46.671Z,16.30
2017-09-29T08:49:13.203Z,16.40
2017-09-29T08:51:39.724Z,16.50
2017-09-29T08:54:06.909Z,16.60
2017-09-29T08:56:33.365Z,16.60
2017-09-29T08:59:01.421Z,16.60
2017-09-29T09:01:29.429Z,16.50
2017-09-29T09:03:55.788Z,16.50
2017-09-29T09:06:23.029Z,16.60
2017-09-29T09:08:50.721Z,16.70
2017-09-29T09:11:17.459Z,16.60
2017-09-29T09:13:43.965Z,16.80
2017-09-29T09:16:10.329Z,17.00
2017-09-29T09:18:37.325Z,17.00
2017-09-29T09:21:03.832Z,17.20
2017-09-29T09:23:30.456Z,17.20
2017-09-29T09:25:57.090Z,17.30
2017-09-29T09:28:23.451Z,17.30
2017-09-29T09:30:49.871Z,17.30
2017-09-29T09:33:17.547Z,17.40
2017-09-29T09:35:44.111Z,17.40
2017-09-29T09:38:11.271Z,17.50
2017-09-29T09:40:38.369Z,17.60
2017-09-29T09:43:05.164Z,17.60
2017-09-29T09:45:31.740Z,17.70
2017-09-29T09:47:58.492Z,17.80
2017-09-29T09:50:24.881Z,17.90
2017-09-29T09:52:51.961Z,18.00
2017-09-29T09:55:19.553Z,18.00
2017-09-29T09:57:46.976Z,18.10
2017-09-29T10:00:14.177Z,18.20
2017-09-29T10:02:41.686Z,18.20
2017-09-29T10:05:08.217Z,18.20
2017-09-29T10:07:34.683Z,18.30
2017-09-29T10:10:01.427Z,18.40
2017-09-29T10:12:28.823Z,18.60
2017-09-29T10:14:55.083Z,18.60
2017-09-29T10:17:21.529Z,18.60
2017-09-29T10:19:48.030Z,18.70
2017-09-29T10:22:14.756Z,18.80
2017-09-29T10:24:41.481Z,18.90
2017-09-29T10:27:07.993Z,19.00
2017-09-29T10:29:34.552Z,19.00
2017-09-29T10:32:02.045Z,19.10
2017-09-29T10:34:28.383Z,19.10
2017-09-29T10:36:55.225Z,19.20
2017-09-29T10:39:21.460Z,19.20
2017-09-29T10:41:47.681Z,19.10
2017-09-29T10:44:13.948Z,19.00
2017-09-29T10:46:40.913Z,19.00
2017-09-29T10:49:07.886Z,19.10
2017-09-29T10:51:34.162Z,19.10
2017-09-29T10:54:00.412Z,19.20
2017-09-29T10:56:27.377Z,19.40
2017-09-29T10:58:53.618Z,19.40
2017-09-29T11:01:19.841Z,19.50
2017-09-29T11:03:46.070Z,19.50
2017-09-29T11:06:12.533Z,19.60
2017-09-29T11:08:38.769Z,19.70
2017-09-29T11:11:04.984Z,19.70
2017-09-29T11:13:31.243Z,19.80
2017-09-29T11:15:57.463Z,19.80
2017-09-29T11:18:23.685Z,19.90
2017-09-29T11:20:50.020Z,19.90
2017-09-29T11:23:16.236Z,20.00
2017-09-29T11:25:42.453Z,20.10
2017-09-29T11:28:08.836Z,20.10
2017-09-29T11:30:35.832Z,20.10
2017-09-29T11:33:02.034Z,20.10
2017-09-29T11:35:28.275Z,20.10
2017-09-29T11:37:54.489Z,20.10
2017-09-29T11:40:20.720Z,20.10
2017-09-29T11:42:47.278Z,20.20
2017-09-29T11:45:13.504Z,20.30
2017-09-29T11:47:39.747Z,20.30
2017-09-29T11:50:06.109Z,20.30
2017-09-29T11:52:33.070Z,20.30
2017-09-29T11:54:59.306Z,20.30
2017-09-29T11:57:25.557Z,20.40
2017-09-29T11:59:51.825Z,20.50
2017-09-29T12:02:18.054Z,20.70
2017-09-29T12:04:44.288Z,20.80
2017-09-29T12:07:11.278Z,21.10
2017-09-29T12:09:37.550Z,21.10
2017-09-29T12:12:03.776Z,21.40
2017-09-29T12:14:30.012Z,21.70
2017-09-29T12:16:57.342Z,22.30
2017-09-29T12:19:24.305Z,22.70
2017-09-29T12:21:51.792Z,22.70
2017-09-29T12:24:18.882Z,23.30
2017-09-29T12:26:45.123Z,23.30
2017-09-29T12:29:12.444Z,23.40
2017-09-29T12:31:38.784Z,23.70
2017-09-29T12:34:05.032Z,23.80
2017-09-29T12:36:31.307Z,24.00
2017-09-29T12:38:57.992Z,24.30
2017-09-29T12:41:25.600Z,24.50
2017-09-29T12:43:52.825Z,24.90
2017-09-29T12:46:19.423Z,24.90
2017-09-29T12:48:46.002Z,24.70
2017-09-29T12:51:12.318Z,24.70
2017-09-29T12:53:39.143Z,24.70
2017-09-29T12:56:05.585Z,24.80
2017-09-29T12:58:32.240Z,24.90
2017-09-29T13:00:59.352Z,25.10
2017-09-29T13:03:26.024Z,25.30
2017-09-29T13:05:53.467Z,25.30
2017-09-29T13:08:19.928Z,25.30
2017-09-29T13:10:47.042Z,25.20
2017-09-29T13:13:13.486Z,25.20
2017-09-29T13:15:40.034Z,25.10
2017-09-29T13:18:06.484Z,25.20
2017-09-29T13:20:33.379Z,25.30
2017-09-29T13:23:00.010Z,25.30
2017-09-29T13:25:26.583Z,25.50
2017-09-29T13:27:53.982Z,25.40
2017-09-29T13:30:20.365Z,25.60
2017-09-29T13:32:46.768Z,25.90
2017-09-29T13:35:13.281Z,26.10
2017-09-29T13:37:39.711Z,26.50
2017-09-29T13:40:06.024Z,26.30
2017-09-29T13:42:33.227Z,26.00
2017-09-29T13:45:00.021Z,25.90
2017-09-29T13:47:27.134Z,24.60
2017-09-29T13:49:54.025Z,24.60
2017-09-29T13:52:20.375Z,24.30
2017-09-29T13:54:46.830Z,24.20
2017-09-29T13:57:13.356Z,23.90
2017-09-29T13:59:39.664Z,23.80
2017-09-29T14:02:06.556Z,23.80
2017-09-29T14:04:33.330Z,23.90
2017-09-29T14:07:00.605Z,23.30
2017-09-29T14:09:27.053Z,23.30
2017-09-29T14:11:53.597Z,23.20
2017-09-29T14:14:20.068Z,23.00
2017-09-29T14:16:47.701Z,22.70
2017-09-29T14:19:14.228Z,22.60
2017-09-29T14:21:40.736Z,22.60
2017-09-29T14:24:07.254Z,22.50
2017-09-29T14:26:33.779Z,22.40
2017-09-29T14:29:00.832Z,22.20
2017-09-29T14:31:27.849Z,22.20
2017-09-29T14:33:54.522Z,22.20
2017-09-29T14:36:21.236Z,22.10
2017-09-29T14:38:48.621Z,22.10
2017-09-29T14:41:15.296Z,22.10
2017-09-29T14:43:42.017Z,22.00
2017-09-29T14:46:08.564Z,21.90
2017-09-29T14:48:35.570Z,21.90
2017-09-29T14:51:01.897Z,21.90
2017-09-29T14:53:29.382Z,21.90
2017-09-29T14:55:55.947Z,21.80
2017-09-29T14:58:22.506Z,21.80
2017-09-29T15:00:48.908Z,21.80
2017-09-29T15:03:15.842Z,21.70
2017-09-29T15:05:42.360Z,21.50
2017-09-29T15:08:08.721Z,21.60
2017-09-29T15:10:36.063Z,21.60
2017-09-29T15:13:02.403Z,21.50
2017-09-29T15:15:28.744Z,21.60
2017-09-29T15:17:56.041Z,21.70
2017-09-29T15:20:22.439Z,21.70
2017-09-29T15:22:49.677Z,21.50
2017-09-29T15:25:16.305Z,21.50
2017-09-29T15:27:42.781Z,21.50
2017-09-29T15:30:10.837Z,21.40
2017-09-29T15:32:37.820Z,21.40
2017-09-29T15:35:04.492Z,21.40
2017-09-29T15:37:30.948Z,21.30
2017-09-29T15:39:57.470Z,21.20
2017-09-29T15:42:23.913Z,21.20
2017-09-29T15:44:50.578Z,21.10
2017-09-29T15:47:18.502Z,21.00
2017-09-29T15:49:45.033Z,21.00
2017-09-29T15:52:11.656Z,20.90
2017-09-29T15:54:39.066Z,20.70
2017-09-29T15:57:05.602Z,20.70
2017-09-29T15:59:32.143Z,20.60
2017-09-29T16:01:58.727Z,20.50
2017-09-29T16:04:25.773Z,20.40
2017-09-29T16:06:52.891Z,20.40
2017-09-29T16:09:20.193Z,20.40
2017-09-29T16:11:47.694Z,20.20
2017-09-29T16:14:14.581Z,20.20
2017-09-29T16:16:41.096Z,20.10
2017-09-29T16:19:07.943Z,20.10
2017-09-29T16:21:34.425Z,20.00
2017-09-29T16:24:01.862Z,19.90
2017-09-29T16:26:28.703Z,19.90
2017-09-29T16:28:55.535Z,19.90
2017-09-29T16:31:22.280Z,19.90
2017-09-29T16:33:48.846Z,19.80
2017-09-29T16:36:15.554Z,19.80
2017-09-29T16:38:42.099Z,19.70
2017-09-29T16:41:08.478Z,19.70
2017-09-29T16:43:36.508Z,19.60
2017-09-29T16:46:02.958Z,19.60
2017-09-29T16:48:29.562Z,19.60
2017-09-29T16:50:56.486Z,19.50
2017-09-29T16:53:24.281Z,19.50
2017-09-29T16:55:51.109Z,19.40
2017-09-29T16:58:19.063Z,19.30
2017-09-29T17:00:45.873Z,19.30
2017-09-29T17:03:13.037Z,19.20
2017-09-29T17:05:40.122Z,19.20
2017-09-29T17:08:07.334Z,19.20
2017-09-29T17:10:34.596Z,19.10
2017-09-29T17:13:01.921Z,19.10
2017-09-29T17:15:28.242Z,19.10
2017-09-29T17:17:56.745Z,19.10
2017-09-29T17:20:23.345Z,19.10
2017-09-29T17:22:50.617Z,19.10
2017-09-29T17:25:17.537Z,19.10
2017-09-29T17:27:45.480Z,19.00
2017-09-29T17:30:13.491Z,19.00
2017-09-29T17:32:40.355Z,18.90
2017-09-29T17:35:07.581Z,18.90
2017-09-29T17:37:34.128Z,18.90
2017-09-29T17:40:01.658Z,18.80
2017-09-29T17:42:28.401Z,18.80
2017-09-29T17:44:55.729Z,18.80
2017-09-29T17:47:25.940Z,18.70
2017-09-29T17:49:55.700Z,18.70
2017-09-29T17:52:22.248Z,18.70
2017-09-29T17:54:49.366Z,18.70
2017-09-29T17:57:16.407Z,18.60
2017-09-29T17:59:43.951Z,18.60
2017-09-29T18:02:10.491Z,18.70
2017-09-29T18:04:42.694Z,18.70
2017-09-29T18:07:09.774Z,18.60
2017-09-29T18:09:36.181Z,18.60
2017-09-29T18:12:02.783Z,18.60
2017-09-29T18:14:30.033Z,18.60
2017-09-29T18:16:57.241Z,18.60
2017-09-29T18:19:24.177Z,18.50
2017-09-29T18:21:51.766Z,18.50
2017-09-29T18:24:19.568Z,18.50
2017-09-29T18:26:46.100Z,18.50
2017-09-29T18:29:13.172Z,18.50
2017-09-29T18:31:39.602Z,18.40
2017-09-29T18:34:06.970Z,18.40
2017-09-29T18:36:34.358Z,18.40
2017-09-29T18:39:00.677Z,18.40
2017-09-29T18:41:27.170Z,18.40
2017-09-29T18:44:08.655Z,18.40
2017-09-29T18:46:39.939Z,18.40
2017-09-29T18:49:08.193Z,18.40
2017-09-29T18:51:35.657Z,18.40
2017-09-29T18:54:02.562Z,18.40
2017-09-29T18:56:28.997Z,18.30
2017-09-29T18:58:56.365Z,18.40
2017-09-29T19:01:24.461Z,18.30
2017-09-29T19:03:51.365Z,18.30
2017-09-29T19:06:18.846Z,18.20
2017-09-29T19:08:46.450Z,18.20
2017-09-29T19:11:13.815Z,18.10
2017-09-29T19:13:41.476Z,18.00
2017-09-29T19:16:08.412Z,18.00
2017-09-29T19:18:34.950Z,18.00
2017-09-29T19:21:01.421Z,18.00
2017-09-29T19:23:28.850Z,18.00
2017-09-29T19:25:55.282Z,18.00
2017-09-29T19:28:23.933Z,17.90
2017-09-29T19:30:51.419Z,17.90
2017-09-29T19:33:18.845Z,17.80
2017-09-29T19:35:45.741Z,17.80
2017-09-29T19:38:12.387Z,17.80
2017-09-29T19:40:40.186Z,17.80
2017-09-29T19:43:07.316Z,17.70
2017-09-29T19:45:33.815Z,17.70
2017-09-29T19:48:00.619Z,17.80
2017-09-29T19:50:28.905Z,17.80
2017-09-29T19:52:56.088Z,17.70
2017-09-29T19:55:23.246Z,17.70
2017-09-29T19:57:50.327Z,17.70
2017-09-29T20:00:17.419Z,17.70
2017-09-29T20:02:44.483Z,17.70
2017-09-29T20:05:11.113Z,17.60
2017-09-29T20:07:38.733Z,17.60
2017-09-29T20:10:06.234Z,17.60
2017-09-29T20:12:32.759Z,17.60
2017-09-29T20:15:00.007Z,17.50
2017-09-29T20:17:26.360Z,17.50
2017-09-29T20:19:53.348Z,17.50
2017-09-29T20:22:21.547Z,17.50
2017-09-29T20:24:48.975Z,17.50
2017-09-29T20:27:16.649Z,17.40
2017-09-29T20:29:43.487Z,17.40
2017-09-29T20:32:10.238Z,17.40
2017-09-29T20:34:37.171Z,17.40
2017-09-29T20:37:03.588Z,17.30
2017-09-29T20:39:30.705Z,17.30
2017-09-29T20:41:57.484Z,17.30
2017-09-29T20:44:26.395Z,17.30
2017-09-29T20:46:54.474Z,17.30
2017-09-29T20:49:22.084Z,17.30
2017-09-29T20:51:50.247Z,17.20
2017-09-29T20:54:19.165Z,17.20
2017-09-29T20:56:45.923Z,17.20
2017-09-29T20:59:14.348Z,17.20
2017-09-29T21:01:41.507Z,17.10
2017-09-29T21:04:09.782Z,17.10
2017-09-29T21:06:36.038Z,17.10
2017-09-29T21:09:04.289Z,17.00
2017-09-29T21:11:32.736Z,17.00
2017-09-29T21:13:59.216Z,17.00
2017-09-29T21:16:27.297Z,17.00
2017-09-29T21:18:53.633Z,17.00
2017-09-29T21:21:21.096Z,17.00
2017-09-29T21:23:48.537Z,17.00
2017-09-29T21:26:15.467Z,16.90
2017-09-29T21:28:42.053Z,16.90
2017-09-29T21:31:08.384Z,16.80
2017-09-29T21:33:35.895Z,16.80
2017-09-29T21:36:02.449Z,16.80
2017-09-29T21:38:31.454Z,16.80
2017-09-29T21:40:58.819Z,16.80
2017-09-29T21:43:25.679Z,16.70
2017-09-29T21:45:54.200Z,16.70
2017-09-29T21:48:22.929Z,16.60
2017-09-29T21:50:50.164Z,16.60
2017-09-29T21:53:17.816Z,16.60
2017-09-29T21:55:45.033Z,16.60
2017-09-29T21:58:12.169Z,16.60
2017-09-29T22:00:39.366Z,16.50
2017-09-29T22:03:07.698Z,16.50
2017-09-29T22:05:37.057Z,16.60
2017-09-29T22:08:04.378Z,16.70
2017-09-29T22:10:30.836Z,16.70
2017-09-29T22:12:59.524Z,16.70
2017-09-29T22:15:27.384Z,16.80
2017-09-29T22:17:54.014Z,16.80
2017-09-29T22:20:21.124Z,16.80
2017-09-29T22:22:47.632Z,16.80
2017-09-29T22:25:15.768Z,16.70
2017-09-29T22:27:43.207Z,16.70
2017-09-29T22:30:11.446Z,16.60
2017-09-29T22:32:38.435Z,16.60
2017-09-29T22:35:05.430Z,16.60
2017-09-29T22:37:32.282Z,16.60
2017-09-29T22:39:59.272Z,16.60
2017-09-29T22:42:27.248Z,16.50
2017-09-29T22:44:54.581Z,16.40
2017-09-29T22:47:24.796Z,16.50
2017-09-29T22:49:52.470Z,16.50
2017-09-29T22:52:20.225Z,16.60
2017-09-29T22:54:47.077Z,16.50
2017-09-29T22:57:15.453Z,16.60
2017-09-29T22:59:42.642Z,16.60
2017-09-29T23:02:09.765Z,16.50
2017-09-29T23:04:36.241Z,16.50
2017-09-29T23:07:04.089Z,16.40
2017-09-29T23:09:31.389Z,16.40
2017-09-29T23:11:58.728Z,16.40
2017-09-29T23:14:25.555Z,16.40
2017-09-29T23:16:51.999Z,16.30
2017-09-29T23:19:18.444Z,16.20
2017-09-29T23:21:45.462Z,16.10
2017-09-29T23:24:12.733Z,16.20
2017-09-29T23:26:39.028Z,16.20
2017-09-29T23:29:06.762Z,16.30
2017-09-29T23:31:33.357Z,16.20
2017-09-29T23:33:59.634Z,16.20
2017-09-29T23:36:27.158Z,16.10
2017-09-29T23:38:53.753Z,16.10
2017-09-29T23:41:21.213Z,16.20
2017-09-29T23:43:48.209Z,16.20
2017-09-29T23:46:15.980Z,16.10
2017-09-29T23:48:42.857Z,16.10
2017-09-29T23:51:10.162Z,16.00
2017-09-29T23:53:37.177Z,15.90
2017-09-29T23:56:03.661Z,15.90
2017-09-29T23:58:30.221Z,15.90
